Time;durP1;ratioP1;P1;durP2;ratioP2;P2;SDS_P1;SDS_P2;PMS_P1;PMS_P2;Temp;Humidity;BMP_temperature;BMP_pressure;BME280_temperature;BME280_humidity;BME280_pressure;Samples;Min_cycle;Max_cycle;Signal;HPM_P1;HPM_P2
2024/01/14 00:01:18;;;;;;;46.58;16.00;;;;;;;;;;5100295;28;20036;-54
2024/01/14 00:03:44;;;;;;;47.45;14.27;;;;;;;;;;5103480;28;20357;-57
2024/01/14 00:06:11;;;;;;;37.15;13.73;;;;;;;;;;5102941;28;20232;-54
2024/01/14 00:08:37;;;;;;;45.58;15.05;;;;;;;;;;5104105;28;20024;-56
2024/01/14 00:11:04;;;;;;;45.50;15.38;;;;;;;;;;5103745;28;20046;-57
2024/01/14 00:13:31;;;;;;;58.15;15.15;;;;;;;;;;5103420;28;20040;-56
2024/01/14 00:15:58;;;;;;;34.83;13.10;;;;;;;;;;5102158;28;20080;-59
2024/01/14 00:18:27;;;;;;;29.90;12.82;;;;;;;;;;5103931;28;20032;-56
2024/01/14 00:20:54;;;;;;;43.65;14.25;;;;;;;;;;5103540;28;20323;-59
2024/01/14 00:23:20;;;;;;;40.95;13.05;;;;;;;;;;5103784;28;20304;-54
2024/01/14 00:25:47;;;;;;;35.25;11.85;;;;;;;;;;5100343;28;20312;-53
2024/01/14 00:28:13;;;;;;;22.90;10.75;;;;;;;;;;5098869;28;20360;-57
2024/01/14 00:30:40;;;;;;;25.10;10.98;;;;;;;;;;5100442;28;20322;-54
2024/01/14 00:33:10;;;;;;;49.50;12.48;;;;;;;;;;5091159;28;20095;-58
2024/01/14 00:35:37;;;;;;;24.15;10.75;;;;;;;;;;5102626;28;20019;-58
2024/01/14 00:38:04;;;;;;;24.60;10.25;;;;;;;;;;5103761;28;20205;-52
2024/01/14 00:40:30;;;;;;;22.42;10.93;;;;;;;;;;5103388;28;20020;-58
2024/01/14 00:42:57;;;;;;;24.90;10.18;;;;;;;;;;5103083;28;20053;-55
2024/01/14 00:45:23;;;;;;;28.05;10.88;;;;;;;;;;5103564;28;20016;-57
2024/01/14 00:47:50;;;;;;;64.45;12.35;;;;;;;;;;5103788;28;20031;-57
2024/01/14 00:50:16;;;;;;;34.20;10.93;;;;;;;;;;5106039;28;20020;-59
2024/01/14 00:52:43;;;;;;;48.95;11.95;;;;;;;;;;5099637;28;20032;-56
2024/01/14 00:55:10;;;;;;;36.50;10.77;;;;;;;;;;5087335;28;20080;-57
2024/01/14 00:57:37;;;;;;;42.90;11.10;;;;;;;;;;5087128;28;20025;-57
2024/01/14 01:00:09;;;;;;;38.65;12.05;;;;;;;;;;5086843;28;20085;-57
2024/01/14 01:02:38;;;;;;;81.25;15.82;;;;;;;;;;5087045;28;20021;-57
2024/01/14 01:05:05;;;;;;;39.72;12.35;;;;;;;;;;5102967;28;20130;-56
2024/01/14 01:07:31;;;;;;;36.30;12.70;;;;;;;;;;5095774;28;20016;-58
2024/01/14 01:09:58;;;;;;;50.03;14.10;;;;;;;;;;5094482;28;20027;-55
2024/01/14 01:12:25;;;;;;;39.22;14.68;;;;;;;;;;5086936;28;20020;-55
2024/01/14 01:14:51;;;;;;;47.67;14.82;;;;;;;;;;5092597;28;20031;-56
2024/01/14 01:17:18;;;;;;;37.42;11.68;;;;;;;;;;5105801;28;20286;-57
2024/01/14 01:19:45;;;;;;;30.20;11.43;;;;;;;;;;5106840;28;20032;-56
2024/01/14 01:22:12;;;;;;;45.80;11.48;;;;;;;;;;5105726;28;20016;-56
2024/01/14 01:24:38;;;;;;;27.23;11.23;;;;;;;;;;5098517;28;20126;-58
2024/01/14 01:27:05;;;;;;;24.45;9.85;;;;;;;;;;5092768;28;20017;-56
2024/01/14 01:29:32;;;;;;;24.70;10.57;;;;;;;;;;5095969;28;20033;-60
2024/01/14 01:31:59;;;;;;;32.22;10.70;;;;;;;;;;5100326;28;20020;-56
2024/01/14 01:34:25;;;;;;;26.02;10.75;;;;;;;;;;5091420;28;20414;-59
2024/01/14 01:36:52;;;;;;;83.13;13.32;;;;;;;;;;5106965;28;20254;-58
2024/01/14 01:39:19;;;;;;;74.85;13.10;;;;;;;;;;5106771;28;20012;-61
2024/01/14 01:41:45;;;;;;;44.42;11.43;;;;;;;;;;5106895;28;20084;-66
2024/01/14 01:44:12;;;;;;;49.00;13.20;;;;;;;;;;5094488;28;20243;-60
2024/01/14 01:46:39;;;;;;;41.05;11.10;;;;;;;;;;5085231;28;20028;-64
2024/01/14 01:49:05;;;;;;;34.33;11.38;;;;;;;;;;5086776;28;20051;-61
2024/01/14 01:51:32;;;;;;;33.72;11.40;;;;;;;;;;5086325;28;20024;-61
2024/01/14 01:53:59;;;;;;;25.25;10.60;;;;;;;;;;5086794;28;20273;-60
2024/01/14 01:56:26;;;;;;;26.92;10.55;;;;;;;;;;5086622;28;20020;-59
2024/01/14 01:58:53;;;;;;;28.88;10.35;;;;;;;;;;5094433;28;20061;-62
2024/01/14 02:01:21;;;;;;;25.80;10.25;;;;;;;;;;5097487;28;20316;-60
2024/01/14 02:03:50;;;;;;;25.20;10.48;;;;;;;;;;5098285;28;20287;-62
2024/01/14 02:06:17;;;;;;;22.00;10.07;;;;;;;;;;5097451;28;20343;-60
2024/01/14 02:08:47;;;;;;;23.33;10.15;;;;;;;;;;5094906;28;20008;-60
2024/01/14 02:11:16;;;;;;;17.52;9.35;;;;;;;;;;5094736;28;20012;-63
2024/01/14 02:13:43;;;;;;;15.27;9.27;;;;;;;;;;5094409;28;20024;-62
2024/01/14 02:16:10;;;;;;;20.75;10.02;;;;;;;;;;5102935;28;20027;-63
2024/01/14 02:18:37;;;;;;;16.65;9.30;;;;;;;;;;5105552;28;20028;-63
2024/01/14 02:21:03;;;;;;;16.17;9.43;;;;;;;;;;5105259;28;20031;-61
2024/01/14 02:23:31;;;;;;;16.48;9.60;;;;;;;;;;5106245;28;20020;-57
2024/01/14 02:25:58;;;;;;;16.98;9.30;;;;;;;;;;5105700;28;20197;-61
2024/01/14 02:28:25;;;;;;;14.40;9.65;;;;;;;;;;5106294;28;20407;-66
2024/01/14 02:30:52;;;;;;;12.65;9.25;;;;;;;;;;5099019;28;20019;-62
2024/01/14 02:33:19;;;;;;;20.05;14.30;;;;;;;;;;5088723;28;20028;-62
2024/01/14 02:35:45;;;;;;;35.92;21.30;;;;;;;;;;5090201;28;20034;-63
2024/01/14 02:38:12;;;;;;;53.60;34.13;;;;;;;;;;5092052;28;20032;-57
2024/01/14 02:40:38;;;;;;;63.67;37.95;;;;;;;;;;5085461;28;20092;-60
2024/01/14 02:43:05;;;;;;;72.60;41.60;;;;;;;;;;5085656;28;20028;-62
2024/01/14 02:45:32;;;;;;;96.13;54.85;;;;;;;;;;5085276;28;20016;-59
2024/01/14 02:47:58;;;;;;;100.25;56.33;;;;;;;;;;5085488;28;20126;-57
2024/01/14 02:50:25;;;;;;;91.07;50.58;;;;;;;;;;5084842;28;20040;-59
2024/01/14 02:52:52;;;;;;;60.67;35.13;;;;;;;;;;5085514;28;20378;-59
2024/01/14 02:55:18;;;;;;;42.63;25.25;;;;;;;;;;5084930;28;20078;-57
2024/01/14 02:57:46;;;;;;;34.45;19.90;;;;;;;;;;5085219;28;20079;-57
2024/01/14 03:00:13;;;;;;;28.83;17.13;;;;;;;;;;5085437;28;20036;-62
2024/01/14 03:02:39;;;;;;;21.33;12.32;;;;;;;;;;5092359;28;20081;-62
2024/01/14 03:05:07;;;;;;;19.45;11.68;;;;;;;;;;5088057;28;20088;-59
2024/01/14 03:07:33;;;;;;;19.65;11.05;;;;;;;;;;5085123;28;20044;-63
2024/01/14 03:10:00;;;;;;;18.45;11.02;;;;;;;;;;5084742;28;20081;-55
2024/01/14 03:12:27;;;;;;;19.38;11.98;;;;;;;;;;5083958;28;20086;-61
2024/01/14 03:14:53;;;;;;;21.42;10.90;;;;;;;;;;5085445;28;20028;-62
2024/01/14 03:17:20;;;;;;;31.00;12.43;;;;;;;;;;5095809;28;20099;-57
2024/01/14 03:19:47;;;;;;;19.52;11.43;;;;;;;;;;5084604;28;20211;-56
2024/01/14 03:22:14;;;;;;;16.20;11.32;;;;;;;;;;5084985;28;20028;-57
2024/01/14 03:24:41;;;;;;;22.80;11.82;;;;;;;;;;5084871;28;20178;-56
2024/01/14 03:27:08;;;;;;;17.27;11.40;;;;;;;;;;5084681;28;20020;-57
2024/01/14 03:29:34;;;;;;;20.17;10.48;;;;;;;;;;5084463;28;20016;-58
2024/01/14 03:32:01;;;;;;;19.13;10.57;;;;;;;;;;5084608;28;20249;-57
2024/01/14 03:34:28;;;;;;;14.65;10.40;;;;;;;;;;5091240;28;20245;-63
2024/01/14 03:36:54;;;;;;;16.17;10.40;;;;;;;;;;5093883;28;20024;-61
2024/01/14 03:39:21;;;;;;;19.58;10.60;;;;;;;;;;5095884;28;20031;-58
2024/01/14 03:41:50;;;;;;;20.40;10.25;;;;;;;;;;5086543;28;20051;-59
2024/01/14 03:44:18;;;;;;;28.95;11.13;;;;;;;;;;5093266;28;20012;-57
2024/01/14 03:46:45;;;;;;;21.90;10.85;;;;;;;;;;5084989;28;20025;-56
2024/01/14 03:49:11;;;;;;;14.68;10.70;;;;;;;;;;5084786;28;20038;-56
2024/01/14 03:51:38;;;;;;;16.88;10.55;;;;;;;;;;5084393;28;20035;-59
2024/01/14 03:54:05;;;;;;;16.45;10.55;;;;;;;;;;5092018;28;20024;-61
2024/01/14 03:56:34;;;;;;;21.95;10.57;;;;;;;;;;5088115;28;20041;-61
2024/01/14 03:59:10;;;;;;;17.60;10.35;;;;;;;;;;5092423;28;20024;-57
2024/01/14 04:01:37;;;;;;;77.50;13.10;;;;;;;;;;5102023;28;20055;-57
2024/01/14 04:04:03;;;;;;;23.80;10.32;;;;;;;;;;5104024;28;20208;-55
2024/01/14 04:06:30;;;;;;;20.90;10.98;;;;;;;;;;5104174;28;20024;-56
2024/01/14 04:08:56;;;;;;;21.17;14.65;;;;;;;;;;5104325;28;20078;-61
2024/01/14 04:11:23;;;;;;;20.50;13.93;;;;;;;;;;5096362;28;20020;-58
2024/01/14 04:13:50;;;;;;;17.38;11.65;;;;;;;;;;5103524;28;20023;-59
2024/01/14 04:16:16;;;;;;;18.73;11.05;;;;;;;;;;5104233;28;20016;-57
2024/01/14 04:18:43;;;;;;;19.63;11.32;;;;;;;;;;5104033;28;20027;-58
2024/01/14 04:21:19;;;;;;;17.60;10.43;;;;;;;;;;5103953;28;20316;-59
2024/01/14 04:23:46;;;;;;;18.33;9.55;;;;;;;;;;5106787;28;20032;-57
2024/01/14 04:26:13;;;;;;;14.48;10.43;;;;;;;;;;5098850;28;20024;-55
2024/01/14 04:28:39;;;;;;;17.52;10.55;;;;;;;;;;5087855;28;20028;-57
2024/01/14 04:31:06;;;;;;;11.73;10.50;;;;;;;;;;5087833;28;20048;-56
2024/01/14 04:33:32;;;;;;;12.05;10.50;;;;;;;;;;5088033;28;20305;-56
2024/01/14 04:35:59;;;;;;;11.10;9.70;;;;;;;;;;5105917;28;20028;-58
2024/01/14 04:38:25;;;;;;;11.95;9.70;;;;;;;;;;5088207;28;20374;-60
2024/01/14 04:40:52;;;;;;;12.75;10.32;;;;;;;;;;5087655;28;20347;-57
2024/01/14 04:43:19;;;;;;;14.23;9.50;;;;;;;;;;5098368;28;20024;-56
2024/01/14 04:45:45;;;;;;;14.02;10.20;;;;;;;;;;5088488;28;20022;-57
2024/01/14 04:48:13;;;;;;;11.18;10.02;;;;;;;;;;5087164;28;20092;-56
2024/01/14 04:50:39;;;;;;;14.40;9.73;;;;;;;;;;5087520;28;20095;-56
2024/01/14 04:53:06;;;;;;;13.48;9.40;;;;;;;;;;5087940;28;20032;-60
2024/01/14 04:55:33;;;;;;;13.25;9.23;;;;;;;;;;5087362;28;20296;-55
2024/01/14 04:58:00;;;;;;;16.00;9.23;;;;;;;;;;5087649;28;20027;-55
2024/01/14 05:00:26;;;;;;;14.75;9.45;;;;;;;;;;5087141;28;20051;-61
2024/01/14 05:02:53;;;;;;;16.88;9.65;;;;;;;;;;5090193;28;20032;-58
2024/01/14 05:05:20;;;;;;;12.68;9.20;;;;;;;;;;5095120;28;20085;-55
2024/01/14 05:07:47;;;;;;;10.52;9.27;;;;;;;;;;5088424;28;20066;-56
2024/01/14 05:10:14;;;;;;;14.90;9.55;;;;;;;;;;5087502;28;20023;-55
2024/01/14 05:12:40;;;;;;;12.68;9.93;;;;;;;;;;5087489;28;20037;-58
2024/01/14 05:15:07;;;;;;;12.57;9.43;;;;;;;;;;5086931;28;20016;-53
2024/01/14 05:17:35;;;;;;;11.80;9.20;;;;;;;;;;5087363;28;20024;-58
2024/01/14 05:20:02;;;;;;;18.23;9.55;;;;;;;;;;5102600;28;20031;-55
2024/01/14 05:22:28;;;;;;;21.08;9.90;;;;;;;;;;5087126;28;20292;-58
2024/01/14 05:24:55;;;;;;;18.50;9.90;;;;;;;;;;5086729;28;20027;-58
2024/01/14 05:27:22;;;;;;;20.00;9.82;;;;;;;;;;5103676;28;20074;-62
2024/01/14 05:29:48;;;;;;;23.30;10.27;;;;;;;;;;5107031;28;20338;-56
2024/01/14 05:32:16;;;;;;;21.20;10.25;;;;;;;;;;5106806;28;20035;-58
2024/01/14 05:34:43;;;;;;;19.83;10.70;;;;;;;;;;5105939;28;20027;-59
2024/01/14 05:37:10;;;;;;;17.15;10.02;;;;;;;;;;5106940;28;20032;-59
2024/01/14 05:39:37;;;;;;;16.17;10.25;;;;;;;;;;5106653;28;20024;-59
2024/01/14 05:42:04;;;;;;;16.25;10.77;;;;;;;;;;5106744;28;20416;-56
2024/01/14 05:44:38;;;;;;;17.45;11.00;;;;;;;;;;5106841;28;20027;-54
2024/01/14 05:47:05;;;;;;;14.80;11.15;;;;;;;;;;5106448;28;20089;-61
2024/01/14 05:49:31;;;;;;;15.23;11.40;;;;;;;;;;5106401;28;20066;-61
2024/01/14 05:51:58;;;;;;;14.23;11.20;;;;;;;;;;5106532;28;20026;-61
2024/01/14 05:54:26;;;;;;;17.00;11.57;;;;;;;;;;5106243;28;20027;-59
2024/01/14 05:56:53;;;;;;;15.60;11.88;;;;;;;;;;5106396;28;20020;-60
2024/01/14 05:59:19;;;;;;;18.52;11.70;;;;;;;;;;5101528;28;20059;-58
2024/01/14 06:01:46;;;;;;;18.20;12.25;;;;;;;;;;5095389;28;20032;-60
2024/01/14 06:04:12;;;;;;;13.98;12.02;;;;;;;;;;5105596;28;20024;-59
2024/01/14 06:06:39;;;;;;;16.50;11.52;;;;;;;;;;5106277;28;20039;-60
2024/01/14 06:09:06;;;;;;;18.83;12.68;;;;;;;;;;5106107;28;20023;-62
2024/01/14 06:11:32;;;;;;;16.40;12.25;;;;;;;;;;5107137;28;20031;-63
2024/01/14 06:13:59;;;;;;;15.35;11.95;;;;;;;;;;5106022;28;20020;-63
2024/01/14 06:16:25;;;;;;;16.85;12.48;;;;;;;;;;5106085;28;20208;-58
2024/01/14 06:18:52;;;;;;;18.33;12.40;;;;;;;;;;5105903;28;20208;-62
2024/01/14 06:21:18;;;;;;;18.65;13.18;;;;;;;;;;5105700;28;20027;-60
2024/01/14 06:23:45;;;;;;;17.65;12.77;;;;;;;;;;5105922;28;20027;-61
2024/01/14 06:26:18;;;;;;;18.50;12.85;;;;;;;;;;5105684;28;20015;-60
2024/01/14 06:28:45;;;;;;;17.15;13.57;;;;;;;;;;5105795;28;20040;-57
2024/01/14 06:31:11;;;;;;;18.60;14.10;;;;;;;;;;5105675;28;20314;-57
2024/01/14 06:33:38;;;;;;;20.73;13.30;;;;;;;;;;5105678;28;20046;-64
2024/01/14 06:36:11;;;;;;;16.25;12.35;;;;;;;;;;5104754;28;20020;-61
2024/01/14 06:38:38;;;;;;;16.88;13.82;;;;;;;;;;5104456;28;20352;-59
2024/01/14 06:41:07;;;;;;;14.82;13.20;;;;;;;;;;5105816;28;20055;-59
2024/01/14 06:43:34;;;;;;;17.83;13.32;;;;;;;;;;5106360;28;20307;-60
2024/01/14 06:46:02;;;;;;;20.85;13.63;;;;;;;;;;5105561;28;20015;-56
2024/01/14 06:48:29;;;;;;;17.75;13.70;;;;;;;;;;5106038;28;20024;-59
2024/01/14 06:50:55;;;;;;;21.83;13.52;;;;;;;;;;5105323;28;20308;-60
2024/01/14 06:53:22;;;;;;;17.77;13.40;;;;;;;;;;5105644;28;20299;-56
2024/01/14 06:55:48;;;;;;;20.80;14.68;;;;;;;;;;5105439;28;20121;-61
2024/01/14 06:58:15;;;;;;;18.15;14.52;;;;;;;;;;5105527;28;20024;-61
2024/01/14 07:00:44;;;;;;;23.02;14.52;;;;;;;;;;5102559;28;20082;-56
2024/01/14 07:03:11;;;;;;;17.23;14.35;;;;;;;;;;5089729;28;20032;-57
2024/01/14 07:05:37;;;;;;;20.48;14.45;;;;;;;;;;5084703;28;20020;-57
2024/01/14 07:08:05;;;;;;;18.98;14.57;;;;;;;;;;5084991;28;20021;-60
2024/01/14 07:10:31;;;;;;;21.58;14.77;;;;;;;;;;5084596;28;20032;-58
2024/01/14 07:12:58;;;;;;;20.63;15.30;;;;;;;;;;5085380;28;20415;-61
2024/01/14 07:15:25;;;;;;;18.02;15.40;;;;;;;;;;5084504;28;20216;-60
2024/01/14 07:17:51;;;;;;;21.35;15.18;;;;;;;;;;5084957;28;20036;-57
2024/01/14 07:20:18;;;;;;;17.65;14.95;;;;;;;;;;5084440;28;20016;-64
2024/01/14 07:22:45;;;;;;;19.95;15.18;;;;;;;;;;5084868;28;20088;-58
2024/01/14 07:25:12;;;;;;;20.58;15.38;;;;;;;;;;5084446;28;20012;-55
2024/01/14 07:27:39;;;;;;;18.73;14.93;;;;;;;;;;5092653;28;20137;-55
2024/01/14 07:30:05;;;;;;;18.95;14.77;;;;;;;;;;5104594;28;20019;-55
2024/01/14 07:32:32;;;;;;;22.38;16.27;;;;;;;;;;5104547;28;20207;-55
2024/01/14 07:34:59;;;;;;;17.83;14.90;;;;;;;;;;5104465;28;20024;-57
2024/01/14 07:37:25;;;;;;;22.23;16.00;;;;;;;;;;5104788;28;20024;-55
2024/01/14 07:39:52;;;;;;;18.70;15.13;;;;;;;;;;5104346;28;20077;-57
2024/01/14 07:42:18;;;;;;;18.30;15.25;;;;;;;;;;5104572;28;20032;-58
2024/01/14 07:44:45;;;;;;;20.35;14.73;;;;;;;;;;5104402;28;20361;-60
2024/01/14 07:47:12;;;;;;;18.13;14.90;;;;;;;;;;5104462;28;20038;-55
2024/01/14 07:49:38;;;;;;;20.92;14.45;;;;;;;;;;5104312;28;20275;-56
2024/01/14 07:52:05;;;;;;;17.27;14.93;;;;;;;;;;5104263;28;20277;-56
2024/01/14 07:54:32;;;;;;;17.55;15.15;;;;;;;;;;5104101;28;20012;-57
2024/01/14 07:56:58;;;;;;;20.83;15.52;;;;;;;;;;5104229;28;20034;-58
2024/01/14 07:59:25;;;;;;;19.65;15.15;;;;;;;;;;5103960;28;20077;-57
2024/01/14 08:01:51;;;;;;;19.73;15.27;;;;;;;;;;5104099;28;20032;-58
2024/01/14 08:04:18;;;;;;;20.45;16.45;;;;;;;;;;5104150;28;20023;-58
2024/01/14 08:06:45;;;;;;;19.75;15.02;;;;;;;;;;5104071;28;20296;-59
2024/01/14 08:09:11;;;;;;;19.98;16.02;;;;;;;;;;5104157;28;20077;-55
2024/01/14 08:11:38;;;;;;;22.40;16.38;;;;;;;;;;5103958;28;20046;-60
2024/01/14 08:14:04;;;;;;;20.08;15.55;;;;;;;;;;5103962;28;20017;-55
2024/01/14 08:16:31;;;;;;;17.77;15.85;;;;;;;;;;5103953;28;20059;-56
2024/01/14 08:18:58;;;;;;;21.15;14.85;;;;;;;;;;5104227;28;20047;-58
2024/01/14 08:21:24;;;;;;;18.00;15.73;;;;;;;;;;5103844;28;20023;-57
2024/01/14 08:23:51;;;;;;;19.15;15.50;;;;;;;;;;5103837;28;20026;-60
2024/01/14 08:26:17;;;;;;;19.95;16.38;;;;;;;;;;5103826;28;20020;-60
2024/01/14 08:28:44;;;;;;;23.30;16.00;;;;;;;;;;5103967;28;20040;-60
2024/01/14 08:31:11;;;;;;;18.48;15.52;;;;;;;;;;5103714;28;20020;-61
2024/01/14 08:33:41;;;;;;;20.17;15.48;;;;;;;;;;5103773;28;20325;-57
2024/01/14 08:36:09;;;;;;;19.25;15.00;;;;;;;;;;5103868;28;20028;-58
2024/01/14 08:38:36;;;;;;;22.55;16.25;;;;;;;;;;5104153;28;20028;-54
2024/01/14 08:41:02;;;;;;;23.27;15.60;;;;;;;;;;5103818;28;20024;-56
2024/01/14 08:43:29;;;;;;;20.67;16.27;;;;;;;;;;5104342;28;20260;-58
2024/01/14 08:45:56;;;;;;;21.80;15.90;;;;;;;;;;5103677;28;20020;-61
2024/01/14 08:48:22;;;;;;;18.05;15.45;;;;;;;;;;5104069;28;20039;-59
2024/01/14 08:50:49;;;;;;;21.95;15.85;;;;;;;;;;5103658;28;20012;-55
2024/01/14 08:53:15;;;;;;;22.63;16.25;;;;;;;;;;5104034;28;20095;-59
2024/01/14 08:55:42;;;;;;;18.33;15.32;;;;;;;;;;5103501;28;20030;-57
2024/01/14 08:58:08;;;;;;;21.73;15.90;;;;;;;;;;5103991;28;20070;-55
2024/01/14 09:00:35;;;;;;;23.05;15.15;;;;;;;;;;5103336;28;20103;-56
2024/01/14 09:03:01;;;;;;;19.35;15.65;;;;;;;;;;5103848;28;20024;-57
2024/01/14 09:05:28;;;;;;;18.42;15.73;;;;;;;;;;5103570;28;20024;-56
2024/01/14 09:07:54;;;;;;;17.98;15.32;;;;;;;;;;5103896;28;20087;-59
2024/01/14 09:10:21;;;;;;;19.30;14.80;;;;;;;;;;5093068;28;20024;-55
2024/01/14 09:12:48;;;;;;;20.85;15.45;;;;;;;;;;5086814;28;20028;-58
2024/01/14 09:15:15;;;;;;;19.08;15.10;;;;;;;;;;5088947;28;20040;-55
2024/01/14 09:17:41;;;;;;;20.55;15.05;;;;;;;;;;5107294;28;20031;-57
2024/01/14 09:20:08;;;;;;;19.60;14.73;;;;;;;;;;5088444;28;20069;-57
2024/01/14 09:22:35;;;;;;;20.15;14.55;;;;;;;;;;5087062;28;20020;-59
2024/01/14 09:25:01;;;;;;;22.55;15.13;;;;;;;;;;5086883;28;20020;-61
2024/01/14 09:27:30;;;;;;;18.25;14.05;;;;;;;;;;5086991;28;20051;-57
2024/01/14 09:29:57;;;;;;;17.00;13.65;;;;;;;;;;5086615;28;20044;-58
2024/01/14 09:32:24;;;;;;;18.55;14.18;;;;;;;;;;5101500;28;20032;-55
2024/01/14 09:34:50;;;;;;;20.40;14.30;;;;;;;;;;5106857;28;20024;-55
2024/01/14 09:37:17;;;;;;;17.90;13.10;;;;;;;;;;5107001;28;20046;-60
2024/01/14 09:39:44;;;;;;;21.88;14.15;;;;;;;;;;5106599;28;20024;-56
2024/01/14 09:42:29;;;;;;;17.92;13.90;;;;;;;;;;5107056;28;20025;-58
2024/01/14 09:45:00;;;;;;;22.98;13.93;;;;;;;;;;5106420;28;20024;-56
2024/01/14 09:47:28;;;;;;;17.08;13.23;;;;;;;;;;5106935;28;20028;-58
2024/01/14 09:49:58;;;;;;;18.88;12.82;;;;;;;;;;5106456;28;20068;-60
2024/01/14 09:52:25;;;;;;;18.33;13.85;;;;;;;;;;5106516;28;20028;-61
2024/01/14 09:54:52;;;;;;;19.23;13.50;;;;;;;;;;5106373;28;20087;-63
2024/01/14 09:57:22;;;;;;;17.13;12.65;;;;;;;;;;5106838;28;20130;-59
2024/01/14 09:59:53;;;;;;;22.70;12.70;;;;;;;;;;5105915;28;20036;-61
2024/01/14 10:02:20;;;;;;;21.73;13.48;;;;;;;;;;5094886;28;20052;-60
2024/01/14 10:04:46;;;;;;;27.02;12.57;;;;;;;;;;5086074;28;20079;-55
2024/01/14 10:07:13;;;;;;;23.00;12.63;;;;;;;;;;5085946;28;20025;-54
2024/01/14 10:09:40;;;;;;;23.52;12.95;;;;;;;;;;5086260;28;20024;-54
2024/01/14 10:12:10;;;;;;;22.63;12.35;;;;;;;;;;5085896;28;20028;-56
2024/01/14 10:14:37;;;;;;;24.20;12.55;;;;;;;;;;5086228;28;20024;-58
2024/01/14 10:17:04;;;;;;;22.13;12.00;;;;;;;;;;5085808;28;20131;-55
2024/01/14 10:19:32;;;;;;;24.98;12.50;;;;;;;;;;5085934;28;20299;-54
2024/01/14 10:22:00;;;;;;;26.17;12.75;;;;;;;;;;5085137;28;20101;-55
2024/01/14 10:24:26;;;;;;;28.95;12.52;;;;;;;;;;5085590;28;20062;-59
2024/01/14 10:26:56;;;;;;;28.38;12.63;;;;;;;;;;5085666;28;20047;-56
2024/01/14 10:29:23;;;;;;;30.08;12.10;;;;;;;;;;5085737;28;20016;-63
2024/01/14 10:31:49;;;;;;;24.42;11.57;;;;;;;;;;5085588;28;20028;-54
2024/01/14 10:34:20;;;;;;;20.65;12.77;;;;;;;;;;5085336;28;20208;-57
2024/01/14 10:36:47;;;;;;;16.50;11.05;;;;;;;;;;5085484;28;20059;-57
2024/01/14 10:39:14;;;;;;;19.92;11.70;;;;;;;;;;5085307;28;20028;-56
2024/01/14 10:41:40;;;;;;;19.20;10.52;;;;;;;;;;5085186;28;20059;-54
2024/01/14 10:44:07;;;;;;;18.13;11.48;;;;;;;;;;5085714;28;20012;-61
2024/01/14 10:46:35;;;;;;;16.35;10.98;;;;;;;;;;5085174;28;20035;-60
2024/01/14 10:49:08;;;;;;;27.42;11.55;;;;;;;;;;5084995;28;20043;-57
2024/01/14 10:51:47;;;;;;;23.63;11.23;;;;;;;;;;5084940;28;20056;-56
2024/01/14 10:54:17;;;;;;;20.15;10.60;;;;;;;;;;5085004;28;20024;-60
2024/01/14 10:56:50;;;;;;;49.10;12.65;;;;;;;;;;5085029;28;20048;-57
2024/01/14 10:59:16;;;;;;;26.65;12.23;;;;;;;;;;5084751;28;20037;-56
2024/01/14 11:01:50;;;;;;;30.65;11.95;;;;;;;;;;5084765;28;20052;-58
2024/01/14 11:04:18;;;;;;;23.52;11.23;;;;;;;;;;5084700;28;20032;-58
2024/01/14 11:06:45;;;;;;;22.73;10.93;;;;;;;;;;5084868;28;20030;-62
2024/01/14 11:09:12;;;;;;;21.77;11.18;;;;;;;;;;5084542;28;20374;-59
2024/01/14 11:11:58;;;;;;;24.42;11.07;;;;;;;;;;5084482;28;20270;-57
2024/01/14 11:14:28;;;;;;;31.15;11.55;;;;;;;;;;5084380;28;20023;-58
2024/01/14 11:17:07;;;;;;;24.45;10.90;;;;;;;;;;5084713;28;20024;-60
2024/01/14 11:19:36;;;;;;;31.00;11.45;;;;;;;;;;5084415;28;20021;-58
2024/01/14 11:22:06;;;;;;;30.48;12.27;;;;;;;;;;5084597;28;20067;-64
2024/01/14 11:24:32;;;;;;;22.67;13.55;;;;;;;;;;5084346;28;20009;-56
2024/01/14 11:26:59;;;;;;;26.05;12.90;;;;;;;;;;5084331;28;20020;-58
2024/01/14 11:29:32;;;;;;;19.58;11.98;;;;;;;;;;5084446;28;20070;-59
2024/01/14 11:32:06;;;;;;;27.40;12.15;;;;;;;;;;5083963;28;20078;-62
2024/01/14 11:34:47;;;;;;;20.23;10.77;;;;;;;;;;5084091;28;20066;-59
2024/01/14 11:37:33;;;;;;;22.50;10.60;;;;;;;;;;5084503;28;20035;-57
2024/01/14 11:40:09;;;;;;;19.30;10.80;;;;;;;;;;5084412;28;20028;-55
2024/01/14 11:42:36;;;;;;;18.98;10.30;;;;;;;;;;5098739;28;20024;-61
2024/01/14 11:45:03;;;;;;;21.85;10.02;;;;;;;;;;5094768;28;20027;-63
2024/01/14 11:47:45;;;;;;;21.23;10.38;;;;;;;;;;5104613;28;20054;-56
2024/01/14 11:50:13;;;;;;;18.87;9.40;;;;;;;;;;5104176;28;20020;-57
2024/01/14 11:52:44;;;;;;;25.27;10.13;;;;;;;;;;5104687;28;20093;-58
2024/01/14 11:55:14;;;;;;;18.00;9.47;;;;;;;;;;5104403;28;20020;-56
2024/01/14 11:57:41;;;;;;;20.52;9.43;;;;;;;;;;5100604;28;20153;-57
2024/01/14 12:00:08;;;;;;;17.55;9.70;;;;;;;;;;5083912;28;20064;-56
2024/01/14 12:02:37;;;;;;;15.40;9.20;;;;;;;;;;5082934;28;20240;-55
2024/01/14 12:05:19;;;;;;;19.50;9.60;;;;;;;;;;5084052;28;20012;-57
2024/01/14 12:07:46;;;;;;;16.55;9.35;;;;;;;;;;5084311;28;20051;-57
2024/01/14 12:10:18;;;;;;;19.13;9.13;;;;;;;;;;5083871;28;20017;-61
2024/01/14 12:12:44;;;;;;;23.15;10.30;;;;;;;;;;5084297;28;20024;-56
2024/01/14 12:15:12;;;;;;;16.52;9.45;;;;;;;;;;5083889;28;20047;-55
2024/01/14 12:17:38;;;;;;;18.05;9.57;;;;;;;;;;5084012;28;20075;-58
2024/01/14 12:20:08;;;;;;;20.48;9.70;;;;;;;;;;5083814;28;20013;-63
2024/01/14 12:22:37;;;;;;;15.45;9.48;;;;;;;;;;5084156;28;20059;-62
2024/01/14 12:25:04;;;;;;;17.92;9.68;;;;;;;;;;5083746;28;20017;-63
2024/01/14 12:27:31;;;;;;;21.45;9.13;;;;;;;;;;5084216;28;20035;-59
2024/01/14 12:29:58;;;;;;;16.75;9.95;;;;;;;;;;5097030;28;20087;-60
2024/01/14 12:32:24;;;;;;;22.55;9.57;;;;;;;;;;5124375;28;20090;-58
2024/01/14 12:34:51;;;;;;;15.35;9.70;;;;;;;;;;5124501;28;20012;-60
2024/01/14 12:37:18;;;;;;;26.25;10.10;;;;;;;;;;5106478;28;20308;-60
2024/01/14 12:39:44;;;;;;;18.23;9.45;;;;;;;;;;5098558;28;20020;-59
2024/01/14 12:42:12;;;;;;;14.60;8.93;;;;;;;;;;5101796;28;20031;-60
2024/01/14 12:44:42;;;;;;;16.48;9.20;;;;;;;;;;5086055;28;20023;-61
2024/01/14 12:47:09;;;;;;;19.63;9.10;;;;;;;;;;5087973;28;20052;-58
2024/01/14 12:49:37;;;;;;;16.48;9.50;;;;;;;;;;5087636;28;20016;-56
2024/01/14 12:52:05;;;;;;;25.00;8.98;;;;;;;;;;5087472;28;20035;-59
2024/01/14 12:54:32;;;;;;;14.15;9.30;;;;;;;;;;5093701;28;20028;-59
2024/01/14 12:57:02;;;;;;;18.98;9.38;;;;;;;;;;5108005;28;20088;-67
2024/01/14 12:59:28;;;;;;;22.13;9.52;;;;;;;;;;5108402;28;20044;-57
2024/01/14 13:01:55;;;;;;;18.75;9.38;;;;;;;;;;5107455;28;20081;-59
2024/01/14 13:04:24;;;;;;;16.98;8.98;;;;;;;;;;5107594;28;20316;-58
2024/01/14 13:06:51;;;;;;;28.85;9.90;;;;;;;;;;5107498;28;20020;-57
2024/01/14 13:09:18;;;;;;;25.13;9.80;;;;;;;;;;5107601;28;20075;-63
2024/01/14 13:11:44;;;;;;;26.42;9.40;;;;;;;;;;5107412;28;20340;-56
2024/01/14 13:14:11;;;;;;;29.50;9.00;;;;;;;;;;5107528;28;20316;-56
2024/01/14 13:16:37;;;;;;;22.80;9.07;;;;;;;;;;5107238;28;20216;-57
2024/01/14 13:19:04;;;;;;;23.40;9.05;;;;;;;;;;5107470;28;20027;-60
2024/01/14 13:21:31;;;;;;;26.30;8.88;;;;;;;;;;5093904;28;20043;-57
2024/01/14 13:23:58;;;;;;;20.77;9.50;;;;;;;;;;5086750;28;20024;-58
2024/01/14 13:26:26;;;;;;;23.13;9.15;;;;;;;;;;5086670;28;20020;-59
2024/01/14 13:28:57;;;;;;;14.82;8.70;;;;;;;;;;5086653;28;20021;-57
2024/01/14 13:31:26;;;;;;;19.27;9.00;;;;;;;;;;5090775;28;20058;-64
2024/01/14 13:33:53;;;;;;;21.65;8.98;;;;;;;;;;5099705;28;20363;-60
2024/01/14 13:36:19;;;;;;;23.27;9.43;;;;;;;;;;5100471;28;20092;-56
2024/01/14 13:38:46;;;;;;;20.58;8.50;;;;;;;;;;5101833;28;20027;-57
2024/01/14 13:41:13;;;;;;;17.70;8.32;;;;;;;;;;5086326;28;20028;-62
2024/01/14 13:43:39;;;;;;;18.02;8.95;;;;;;;;;;5086937;28;20054;-59
2024/01/14 13:46:06;;;;;;;13.18;8.75;;;;;;;;;;5100184;28;20020;-59
2024/01/14 13:48:33;;;;;;;14.77;8.52;;;;;;;;;;5107464;28;20067;-59
2024/01/14 13:51:02;;;;;;;22.13;8.95;;;;;;;;;;5105772;28;20024;-57
2024/01/14 13:53:29;;;;;;;17.10;8.73;;;;;;;;;;5107364;28;20314;-62
2024/01/14 13:55:56;;;;;;;22.63;8.95;;;;;;;;;;5105729;28;20212;-60
2024/01/14 13:58:23;;;;;;;17.17;8.88;;;;;;;;;;5107088;28;20028;-60
2024/01/14 14:00:49;;;;;;;18.88;8.70;;;;;;;;;;5106064;28;20141;-61
2024/01/14 14:03:16;;;;;;;12.05;8.30;;;;;;;;;;5107239;28;20101;-65
2024/01/14 14:05:48;;;;;;;15.07;8.82;;;;;;;;;;5090572;28;20009;-63
2024/01/14 14:08:15;;;;;;;15.43;8.70;;;;;;;;;;5086344;28;20023;-65
2024/01/14 14:10:42;;;;;;;18.50;9.02;;;;;;;;;;5086075;28;20016;-67
2024/01/14 14:13:08;;;;;;;13.18;8.30;;;;;;;;;;5086337;28;20084;-59
2024/01/14 14:15:35;;;;;;;13.65;8.80;;;;;;;;;;5093685;28;20028;-65
2024/01/14 14:18:02;;;;;;;12.52;8.25;;;;;;;;;;5106465;28;20028;-57
2024/01/14 14:20:28;;;;;;;11.60;8.55;;;;;;;;;;5106047;28;20016;-61
2024/01/14 14:22:55;;;;;;;14.60;9.73;;;;;;;;;;5104792;28;20048;-60